Douradina, Brazil
Current Conditions -  °F | °C
As of 8:00 PM on Tuesday 25 Nov 2014 (Local Time) from SBMG Reporting Station
Light Rain Light Rain  
Wind Chill: 20°   Ceiling: 100
Heat Index: 20°   Visibility: 2.5mi
Dew Point: 20°   Wind: 7mph
Humidity: 100%   Direction: 140°SE
Pressure: NA   Gusts: NA
Location:  23.38°S, 53.29°W
Report Text: SBMG 252200Z 14006KT 4000 -RA BR BKN001 SCT005 BKN010 20/20 Q1010
Loading
Personal Weather Stations






























Interactive Weather Map New forecast layout! Learn more

10-Day Weather Forecast

Advertisements
Track Severe Weather on mobile